Weather observations for the past three days for
Liberal, Liberal Municipal Airport
Metric (Imperial)
Date Time (cdt) Wind (kph) Vis. (km) Weather Sky Cond. Temperature (ºC) Relative Humidity Wind Chill (°C) Heat Index (°C) Pressure Precipitation (cm)
Air Dwpt 6 hour altimeter (cm) sea level (mb) 1 hr 3 hr 6 hr
Max. Min.
31 02:56 SW 13 16.09 A Few Clouds FEW120 23.3 16.7 67% 76.17 1011.4
31 01:56 SW 15 16.09 A Few Clouds FEW120 25.6 15.6 54% 26 76.15 1011.1
31 00:56 S 15 16.09 Fair CLR 26.1 15 35.6 26.1 50% 27 76.12 1010.8
30 23:56 S 22 16.09 Fair CLR 27.2 14.4 45% 27 76.07 1010.0
30 22:56 S 28 16.09 Fair CLR 28.3 14.4 43% 28 76 1009.2
30 21:56 S 20 16.09 Fair CLR 28.9 14.4 41% 29 75.97 1008.9
30 20:56 S 22 16.09 Fair CLR 30 15 40% 30 75.92 1008.4
30 19:56 S 19 16.09 Fair CLR 32.2 15.6 37% 32 75.9 1007.9
30 18:56 S 22 16.09 Fair CLR 36.1 16.7 38.9 33.9 32% 37 75.87 1007.3
30 17:56 Calm 16.09 Fair CLR 37.8 17.2 30% 39 75.87 1007.3
30 16:56 Vrbl 6 16.09 Fair CLR 38.3 17.2 29% 40 75.9 1007.4
30 15:56 W 11 16.09 Fair CLR 37.8 16.7 29% 39 75.95 1008.1
30 14:56 W 7 16.09 Fair CLR 36.7 17.2 32% 38 76.02 1009.1
30 13:56 W 17 16.09 Fair CLR 35.6 17.2 34% 36 76.07 1010.0
30 12:56 W 13 16.09 Fair CLR 33.9 16.7 33.9 20.6 36% 34 76.12 1010.8
30 11:56 W 17 16.09 Fair CLR 32.8 16.1 37% 33 76.15 1011.0
30 10:56 W 20 16.09 Fair CLR 31.1 16.1 40% 31 76.12 1010.9
30 09:56 SW 15 16.09 Fair CLR 27.8 16.1 49% 28 76.12 1010.9
30 08:56 SW 13 16.09 Fair CLR 24.4 16.1 60% 26 76.12 1011.1
30 07:56 SW 17 16.09 Fair CLR 22.2 15 64% 76.1 1010.8
30 06:56 S 20 16.09 Fair CLR 21.7 14.4 25.6 21.1 63% 76.07 1010.1
30 05:56 S 17 16.09 Fair CLR 21.7 15 66% 76.07 1010.1
30 03:56 S 22 16.09 Fair CLR 23.9 14.4 55% 25 76.02 1009.4
30 02:56 S 19 16.09 Fair CLR 23.9 15 58% 25 76.05 1010.0
30 01:56 S 15 16.09 Fair CLR 23.3 15.6 62% 76.1 1010.5
30 00:56 S 15 16.09 Fair CLR 25.6 15 35.6 25.6 52% 26 76.1 1010.5
29 23:56 S 20 16.09 Fair CLR 26.7 15.6 51% 27 76.1 1010.2
29 22:56 S 22 16.09 Fair CLR 27.2 15.6 49% 28 76.07 1010.1
29 21:56 S 24 16.09 Fair CLR 30 15.6 42% 30 76 1009.4
29 20:56 S 24 16.09 Fair CLR 30.6 15.6 40% 30 75.95 1008.5
29 19:56 S 22 16.09 Fair CLR 32.8 16.1 37% 33 75.9 1008.2
29 18:56 S 26 G 41 16.09 Fair CLR 35.6 16.1 37.8 34.4 31% 36 75.9 1008.0
29 17:56 S 24 16.09 Fair CLR 37.2 16.7 30% 38 75.92 1008.1
29 16:56 S 31 G 41 16.09 Fair CLR 37.8 16.1 28% 38 75.97 1008.7
29 15:56 S 31 16.09 Fair CLR 37.2 17.8 32% 39 76.05 1009.7
29 14:56 S 33 G 43 16.09 Fair and Breezy CLR 35 17.2 35% 36 76.1 1010.8
29 13:56 S 28 G 46 16.09 Fair CLR 35.6 17.2 34% 36 76.15 1011.4
29 12:56 SW 35 G 44 16.09 Fair and Breezy CLR 35.6 17.2 35.6 19.4 34% 36 76.23 1012.2
29 11:56 SW 33 G 46 16.09 Fair and Breezy CLR 33.9 16.7 36% 34 76.28 1012.9
29 10:56 SW 33 G 44 16.09 Fair and Breezy CLR 31.1 17.2 43% 32 76.3 1013.5
29 09:56 S 31 16.09 Fair CLR 27.2 16.7 53% 28 76.3 1013.9
29 08:56 S 28 16.09 Fair CLR 23.9 16.1 62% 25 76.35 1014.3
29 07:56 S 20 16.09 Fair CLR 20.6 15.6 73% 76.35 1014.5
29 06:56 S 15 16.09 Fair CLR 19.4 15 22.8 18.9 76% 76.33 1013.9
29 05:56 S 17 16.09 Fair CLR 20.6 15 70% 76.35 1014.0
29 04:56 S 19 16.09 Fair CLR 20 15.6 76% 76.35 1014.3
29 03:56 S 15 16.09 Fair CLR 21.7 15 66% 76.35 1014.3
29 02:56 S 13 16.09 Fair CLR 20.6 15.6 73% 76.38 1014.7
29 01:56 S 15 16.09 Fair CLR 22.2 15.6 66% 76.4 1015.1
29 00:56 S 17 16.09 Fair CLR 22.8 16.1 33.3 22.8 66% 76.4 1014.8
28 23:56 S 17 16.09 Fair CLR 23.3 16.7 67% 76.38 1014.8
28 22:56 SE 20 16.09 Fair CLR 24.4 16.7 62% 25 76.38 1014.8
28 21:56 SE 15 16.09 Fair CLR 25 17.2 62% 26 76.35 1014.6
28 20:56 SE 17 16.09 Fair CLR 26.7 17.2 56% 27 76.3 1013.9
28 19:56 SE 20 16.09 Fair CLR 30 17.8 48% 31 76.28 1013.4
28 18:56 S 19 16.09 Fair CLR 33.3 16.1 35 31.1 36% 33 76.28 1013.4
28 17:56 S 26 16.09 Fair CLR 34.4 16.7 35% 35 76.28 1013.2
28 16:56 S 22 G 33 16.09 Fair CLR 34.4 17.2 36% 35 76.33 1013.8
28 15:56 S 20 16.09 Fair CLR 33.9 17.8 38% 35 76.43 1015.1
28 14:56 S 31 G 39 16.09 Fair CLR 33.3 17.2 38% 34 76.48 1016.0
28 13:56 S 24 16.09 Fair CLR 32.2 17.8 42% 33 76.56 1017.0
28 12:56 S 26 G 35 16.09 Fair CLR 31.1 18.3 31.1 18.9 46% 32 76.61 1017.8
28 11:56 S 26 16.09 Fair CLR 28.9 18.9 55% 30 76.66 1018.5
28 10:56 S 28 16.09 Fair CLR 27.8 19.4 60% 29 76.66 1018.6
28 09:56 SW 26 16.09 Fair CLR 25.6 18.9 67% 27 76.66 1018.7
28 08:56 SW 19 16.09 Fair CLR 22.2 20 87% 76.68 1019.1
28 07:56 SW 17 16.09 Fair CLR 19.4 18.3 93% 76.68 1019.2
28 06:56 S 17 16.09 Partly Cloudy FEW027 SCT033 SCT060 19.4 18.9 23.3 19.4 97% 76.68 1019.1
28 05:56 NE 24 16.09 Thunderstorm Rain BKN045 BKN055 OVC080 20 18.9 93% 76.86 1021.4
28 04:56 SE 6 16.09 Thunderstorm in Vicinity Light Rain CLR 20.6 18.3 87% 76.66 1018.5
28 03:56 S 13 16.09 Fair CLR 20 17.8 87% 76.63 1018.4
Date Time (cdt) Wind (kph) Vis. (km) Weather Sky Cond. Air Dwpt Max. Min. Relative Humidity Wind Chill (°C) Heat Index (°C) altimeter (cm) sea level (mb) 1 hr 3 hr 6 hr
6 hour
Temperature (ºC) Pressure Precipitation (cm)